sensor_id;sensor_type;location;lat;lon;timestamp;pressure;altitude;pressure_sealevel;temperature
12875;BMP180;6505;51.114;13.128;2023-03-30T00:01:20;99081.00;;;15.70
12875;BMP180;6505;51.114;13.128;2023-03-30T00:03:50;99068.00;;;15.70
12875;BMP180;6505;51.114;13.128;2023-03-30T00:06:21;99068.00;;;15.70
12875;BMP180;6505;51.114;13.128;2023-03-30T00:08:52;99066.00;;;15.60
12875;BMP180;6505;51.114;13.128;2023-03-30T00:11:26;99063.00;;;15.70
12875;BMP180;6505;51.114;13.128;2023-03-30T00:14:03;99095.00;;;15.70
12875;BMP180;6505;51.114;13.128;2023-03-30T00:16:32;99096.00;;;15.60
12875;BMP180;6505;51.114;13.128;2023-03-30T00:19:00;99082.00;;;15.70
12875;BMP180;6505;51.114;13.128;2023-03-30T00:21:28;99106.00;;;15.70
12875;BMP180;6505;51.114;13.128;2023-03-30T00:23:59;99113.00;;;15.70
12875;BMP180;6505;51.114;13.128;2023-03-30T00:26:32;99086.00;;;15.60
12875;BMP180;6505;51.114;13.128;2023-03-30T00:29:03;99061.00;;;15.70
12875;BMP180;6505;51.114;13.128;2023-03-30T00:31:33;99034.00;;;15.70
12875;BMP180;6505;51.114;13.128;2023-03-30T00:34:01;99033.00;;;15.70
12875;BMP180;6505;51.114;13.128;2023-03-30T00:36:29;99048.00;;;15.70
12875;BMP180;6505;51.114;13.128;2023-03-30T00:39:16;99055.00;;;15.70
12875;BMP180;6505;51.114;13.128;2023-03-30T00:41:49;99042.00;;;15.70
12875;BMP180;6505;51.114;13.128;2023-03-30T00:48:01;99017.00;;;15.60
12875;BMP180;6505;51.114;13.128;2023-03-30T00:50:41;98969.00;;;15.60
12875;BMP180;6505;51.114;13.128;2023-03-30T00:53:15;98995.00;;;15.70
12875;BMP180;6505;51.114;13.128;2023-03-30T00:55:48;98996.00;;;15.60
12875;BMP180;6505;51.114;13.128;2023-03-30T00:58:20;98981.00;;;15.70
12875;BMP180;6505;51.114;13.128;2023-03-30T01:00:50;98976.00;;;15.70
12875;BMP180;6505;51.114;13.128;2023-03-30T01:03:26;98968.00;;;15.70
12875;BMP180;6505;51.114;13.128;2023-03-30T01:05:58;98961.00;;;15.70
12875;BMP180;6505;51.114;13.128;2023-03-30T01:08:30;98932.00;;;15.70
12875;BMP180;6505;51.114;13.128;2023-03-30T01:11:03;98936.00;;;15.70
12875;BMP180;6505;51.114;13.128;2023-03-30T01:13:39;98925.00;;;15.70
12875;BMP180;6505;51.114;13.128;2023-03-30T01:16:20;98968.00;;;15.70
12875;BMP180;6505;51.114;13.128;2023-03-30T01:19:12;98968.00;;;15.70
12875;BMP180;6505;51.114;13.128;2023-03-30T01:22:18;98951.00;;;15.70
12875;BMP180;6505;51.114;13.128;2023-03-30T01:28:38;98936.00;;;15.60
12875;BMP180;6505;51.114;13.128;2023-03-30T01:31:48;98927.00;;;15.60
12875;BMP180;6505;51.114;13.128;2023-03-30T01:34:51;98921.00;;;15.60
12875;BMP180;6505;51.114;13.128;2023-03-30T01:38:12;98934.00;;;15.60
12875;BMP180;6505;51.114;13.128;2023-03-30T01:41:10;98937.00;;;15.60
12875;BMP180;6505;51.114;13.128;2023-03-30T01:43:48;98939.00;;;15.60
12875;BMP180;6505;51.114;13.128;2023-03-30T01:46:27;98936.00;;;15.60
12875;BMP180;6505;51.114;13.128;2023-03-30T01:49:09;98930.00;;;15.70
12875;BMP180;6505;51.114;13.128;2023-03-30T01:51:51;98923.00;;;15.70
12875;BMP180;6505;51.114;13.128;2023-03-30T01:54:32;98930.00;;;15.70
12875;BMP180;6505;51.114;13.128;2023-03-30T01:57:15;98918.00;;;15.70
12875;BMP180;6505;51.114;13.128;2023-03-30T01:59:56;98924.00;;;15.70
12875;BMP180;6505;51.114;13.128;2023-03-30T02:02:29;98913.00;;;15.70
12875;BMP180;6505;51.114;13.128;2023-03-30T02:05:03;98896.00;;;15.70
12875;BMP180;6505;51.114;13.128;2023-03-30T02:07:38;98897.00;;;15.70
12875;BMP180;6505;51.114;13.128;2023-03-30T02:10:10;98895.00;;;15.70
12875;BMP180;6505;51.114;13.128;2023-03-30T02:12:44;98887.00;;;15.70
12875;BMP180;6505;51.114;13.128;2023-03-30T02:15:15;98886.00;;;15.70
12875;BMP180;6505;51.114;13.128;2023-03-30T02:17:45;98892.00;;;15.80
12875;BMP180;6505;51.114;13.128;2023-03-30T02:20:15;98895.00;;;15.80
12875;BMP180;6505;51.114;13.128;2023-03-30T02:22:45;98901.00;;;15.80
12875;BMP180;6505;51.114;13.128;2023-03-30T02:25:13;98878.00;;;15.80
12875;BMP180;6505;51.114;13.128;2023-03-30T02:27:48;98871.00;;;15.80
12875;BMP180;6505;51.114;13.128;2023-03-30T02:30:16;98854.00;;;15.80
12875;BMP180;6505;51.114;13.128;2023-03-30T02:32:51;98853.00;;;15.70
12875;BMP180;6505;51.114;13.128;2023-03-30T02:35:44;98870.00;;;15.70
12875;BMP180;6505;51.114;13.128;2023-03-30T02:38:52;98855.00;;;15.70
12875;BMP180;6505;51.114;13.128;2023-03-30T02:41:49;98844.00;;;15.70
12875;BMP180;6505;51.114;13.128;2023-03-30T02:44:37;98837.00;;;15.70
12875;BMP180;6505;51.114;13.128;2023-03-30T02:47:19;98817.00;;;15.70
12875;BMP180;6505;51.114;13.128;2023-03-30T02:49:56;98825.00;;;15.70
12875;BMP180;6505;51.114;13.128;2023-03-30T02:52:40;98829.00;;;15.70
12875;BMP180;6505;51.114;13.128;2023-03-30T02:55:23;98823.00;;;15.70
12875;BMP180;6505;51.114;13.128;2023-03-30T02:58:15;98801.00;;;15.70
12875;BMP180;6505;51.114;13.128;2023-03-30T03:01:04;98818.00;;;15.70
12875;BMP180;6505;51.114;13.128;2023-03-30T03:03:51;98824.00;;;15.70
12875;BMP180;6505;51.114;13.128;2023-03-30T03:06:26;98806.00;;;15.80
12875;BMP180;6505;51.114;13.128;2023-03-30T03:08:59;98809.00;;;15.80
12875;BMP180;6505;51.114;13.128;2023-03-30T03:11:31;98806.00;;;15.80
12875;BMP180;6505;51.114;13.128;2023-03-30T03:13:59;98809.00;;;15.70
12875;BMP180;6505;51.114;13.128;2023-03-30T03:16:31;98801.00;;;15.80
12875;BMP180;6505;51.114;13.128;2023-03-30T03:19:09;98798.00;;;15.80
12875;BMP180;6505;51.114;13.128;2023-03-30T03:21:39;98781.00;;;15.80
12875;BMP180;6505;51.114;13.128;2023-03-30T03:24:10;98783.00;;;15.80
12875;BMP180;6505;51.114;13.128;2023-03-30T03:27:06;98791.00;;;15.80
12875;BMP180;6505;51.114;13.128;2023-03-30T03:29:58;98797.00;;;15.80
12875;BMP180;6505;51.114;13.128;2023-03-30T03:32:30;98800.00;;;15.70
12875;BMP180;6505;51.114;13.128;2023-03-30T03:35:00;98810.00;;;15.80
12875;BMP180;6505;51.114;13.128;2023-03-30T03:37:29;98808.00;;;15.80
12875;BMP180;6505;51.114;13.128;2023-03-30T03:39:57;98797.00;;;15.80
12875;BMP180;6505;51.114;13.128;2023-03-30T03:42:27;98805.00;;;15.80
12875;BMP180;6505;51.114;13.128;2023-03-30T03:45:10;98786.00;;;15.80
12875;BMP180;6505;51.114;13.128;2023-03-30T03:47:52;98787.00;;;15.80
12875;BMP180;6505;51.114;13.128;2023-03-30T03:50:34;98776.00;;;15.80
12875;BMP180;6505;51.114;13.128;2023-03-30T03:53:05;98782.00;;;15.70
12875;BMP180;6505;51.114;13.128;2023-03-30T03:55:36;98795.00;;;15.80
12875;BMP180;6505;51.114;13.128;2023-03-30T03:58:07;98796.00;;;15.80
12875;BMP180;6505;51.114;13.128;2023-03-30T04:00:35;98783.00;;;15.80
12875;BMP180;6505;51.114;13.128;2023-03-30T04:03:07;98780.00;;;15.70
12875;BMP180;6505;51.114;13.128;2023-03-30T04:05:35;98774.00;;;15.80
12875;BMP180;6505;51.114;13.128;2023-03-30T04:08:07;98774.00;;;15.70
12875;BMP180;6505;51.114;13.128;2023-03-30T04:10:40;98774.00;;;15.70
12875;BMP180;6505;51.114;13.128;2023-03-30T04:13:42;98792.00;;;15.70
12875;BMP180;6505;51.114;13.128;2023-03-30T04:16:55;98804.00;;;15.70
12875;BMP180;6505;51.114;13.128;2023-03-30T04:19:40;98817.00;;;15.70
12875;BMP180;6505;51.114;13.128;2023-03-30T04:22:16;98810.00;;;15.70
12875;BMP180;6505;51.114;13.128;2023-03-30T04:25:11;98795.00;;;15.70
12875;BMP180;6505;51.114;13.128;2023-03-30T04:28:00;98783.00;;;15.70
12875;BMP180;6505;51.114;13.128;2023-03-30T04:31:01;98780.00;;;15.70
12875;BMP180;6505;51.114;13.128;2023-03-30T04:33:50;98793.00;;;15.70
12875;BMP180;6505;51.114;13.128;2023-03-30T04:36:41;98775.00;;;15.60
12875;BMP180;6505;51.114;13.128;2023-03-30T04:39:26;98803.00;;;15.60
12875;BMP180;6505;51.114;13.128;2023-03-30T04:42:12;98799.00;;;15.70
12875;BMP180;6505;51.114;13.128;2023-03-30T04:45:12;98797.00;;;15.60
12875;BMP180;6505;51.114;13.128;2023-03-30T04:48:00;98781.00;;;15.60
12875;BMP180;6505;51.114;13.128;2023-03-30T04:50:48;98791.00;;;15.60
12875;BMP180;6505;51.114;13.128;2023-03-30T04:53:46;98776.00;;;15.60
12875;BMP180;6505;51.114;13.128;2023-03-30T04:56:52;98770.00;;;15.60
12875;BMP180;6505;51.114;13.128;2023-03-30T04:59:46;98773.00;;;15.60
12875;BMP180;6505;51.114;13.128;2023-03-30T05:02:50;98765.00;;;15.60
12875;BMP180;6505;51.114;13.128;2023-03-30T05:05:42;98771.00;;;15.60
12875;BMP180;6505;51.114;13.128;2023-03-30T05:08:28;98750.00;;;15.60
12875;BMP180;6505;51.114;13.128;2023-03-30T05:11:17;98774.00;;;15.60
12875;BMP180;6505;51.114;13.128;2023-03-30T05:14:13;98764.00;;;15.60
12875;BMP180;6505;51.114;13.128;2023-03-30T05:17:11;98757.00;;;15.60
12875;BMP180;6505;51.114;13.128;2023-03-30T05:19:57;98756.00;;;15.70
12875;BMP180;6505;51.114;13.128;2023-03-30T05:22:44;98744.00;;;15.60
12875;BMP180;6505;51.114;13.128;2023-03-30T05:25:40;98747.00;;;15.70
12875;BMP180;6505;51.114;13.128;2023-03-30T05:28:37;98751.00;;;15.70
12875;BMP180;6505;51.114;13.128;2023-03-30T05:31:17;98751.00;;;15.70
12875;BMP180;6505;51.114;13.128;2023-03-30T05:34:11;98760.00;;;15.70
12875;BMP180;6505;51.114;13.128;2023-03-30T05:36:48;98766.00;;;15.70
12875;BMP180;6505;51.114;13.128;2023-03-30T05:39:38;98771.00;;;15.70
12875;BMP180;6505;51.114;13.128;2023-03-30T05:42:09;98777.00;;;15.70
12875;BMP180;6505;51.114;13.128;2023-03-30T05:44:43;98777.00;;;15.70
12875;BMP180;6505;51.114;13.128;2023-03-30T05:47:33;98784.00;;;15.80
12875;BMP180;6505;51.114;13.128;2023-03-30T05:50:09;98781.00;;;15.80
12875;BMP180;6505;51.114;13.128;2023-03-30T05:52:57;98777.00;;;15.80
12875;BMP180;6505;51.114;13.128;2023-03-30T05:55:46;98785.00;;;15.80
12875;BMP180;6505;51.114;13.128;2023-03-30T05:58:33;98778.00;;;15.80
12875;BMP180;6505;51.114;13.128;2023-03-30T06:01:12;98795.00;;;15.80
12875;BMP180;6505;51.114;13.128;2023-03-30T06:03:42;98794.00;;;15.80
12875;BMP180;6505;51.114;13.128;2023-03-30T06:06:13;98794.00;;;15.90
12875;BMP180;6505;51.114;13.128;2023-03-30T06:08:45;98795.00;;;15.90
12875;BMP180;6505;51.114;13.128;2023-03-30T06:11:16;98791.00;;;15.90
12875;BMP180;6505;51.114;13.128;2023-03-30T06:13:52;98785.00;;;15.90
12875;BMP180;6505;51.114;13.128;2023-03-30T06:16:21;98792.00;;;15.90
12875;BMP180;6505;51.114;13.128;2023-03-30T06:18:51;98775.00;;;16.00
12875;BMP180;6505;51.114;13.128;2023-03-30T06:21:22;98773.00;;;16.00
12875;BMP180;6505;51.114;13.128;2023-03-30T06:24:19;98764.00;;;16.00
12875;BMP180;6505;51.114;13.128;2023-03-30T06:26:49;98769.00;;;16.00
12875;BMP180;6505;51.114;13.128;2023-03-30T06:29:17;98755.00;;;16.00
12875;BMP180;6505;51.114;13.128;2023-03-30T06:31:49;98755.00;;;16.00
12875;BMP180;6505;51.114;13.128;2023-03-30T06:34:45;98751.00;;;16.00
12875;BMP180;6505;51.114;13.128;2023-03-30T06:37:17;98753.00;;;16.10
12875;BMP180;6505;51.114;13.128;2023-03-30T06:39:48;98741.00;;;16.10
12875;BMP180;6505;51.114;13.128;2023-03-30T06:42:16;98747.00;;;16.10
12875;BMP180;6505;51.114;13.128;2023-03-30T06:45:16;98740.00;;;16.10
12875;BMP180;6505;51.114;13.128;2023-03-30T06:47:48;98718.00;;;16.10
12875;BMP180;6505;51.114;13.128;2023-03-30T06:50:17;98734.00;;;16.10
12875;BMP180;6505;51.114;13.128;2023-03-30T06:52:58;98716.00;;;16.10
12875;BMP180;6505;51.114;13.128;2023-03-30T06:55:42;98717.00;;;16.10
12875;BMP180;6505;51.114;13.128;2023-03-30T06:58:16;98714.00;;;16.20
12875;BMP180;6505;51.114;13.128;2023-03-30T07:00:45;98721.00;;;16.20
12875;BMP180;6505;51.114;13.128;2023-03-30T07:03:34;98710.00;;;16.20
12875;BMP180;6505;51.114;13.128;2023-03-30T07:06:11;98721.00;;;16.20
12875;BMP180;6505;51.114;13.128;2023-03-30T07:08:41;98713.00;;;16.30
12875;BMP180;6505;51.114;13.128;2023-03-30T07:11:13;98707.00;;;16.30
12875;BMP180;6505;51.114;13.128;2023-03-30T07:13:43;98692.00;;;16.30
12875;BMP180;6505;51.114;13.128;2023-03-30T07:16:13;98694.00;;;16.40
12875;BMP180;6505;51.114;13.128;2023-03-30T07:18:48;98687.00;;;16.40
12875;BMP180;6505;51.114;13.128;2023-03-30T07:21:18;98693.00;;;16.50
12875;BMP180;6505;51.114;13.128;2023-03-30T07:23:47;98688.00;;;16.50
12875;BMP180;6505;51.114;13.128;2023-03-30T07:26:30;98695.00;;;16.50
12875;BMP180;6505;51.114;13.128;2023-03-30T07:29:04;98691.00;;;16.50
12875;BMP180;6505;51.114;13.128;2023-03-30T07:31:33;98689.00;;;16.60
12875;BMP180;6505;51.114;13.128;2023-03-30T07:34:10;98694.00;;;16.60
12875;BMP180;6505;51.114;13.128;2023-03-30T07:36:52;98693.00;;;16.70
12875;BMP180;6505;51.114;13.128;2023-03-30T07:39:26;98693.00;;;16.70
12875;BMP180;6505;51.114;13.128;2023-03-30T07:42:02;98694.00;;;16.70
12875;BMP180;6505;51.114;13.128;2023-03-30T07:44:30;98695.00;;;16.80
12875;BMP180;6505;51.114;13.128;2023-03-30T07:47:03;98687.00;;;16.80
12875;BMP180;6505;51.114;13.128;2023-03-30T07:49:34;98682.00;;;16.80
12875;BMP180;6505;51.114;13.128;2023-03-30T07:52:03;98682.00;;;16.90
12875;BMP180;6505;51.114;13.128;2023-03-30T07:54:47;98666.00;;;16.90
12875;BMP180;6505;51.114;13.128;2023-03-30T07:57:19;98656.00;;;16.90
12875;BMP180;6505;51.114;13.128;2023-03-30T07:59:49;98663.00;;;17.00
12875;BMP180;6505;51.114;13.128;2023-03-30T08:02:37;98653.00;;;17.00
12875;BMP180;6505;51.114;13.128;2023-03-30T08:05:14;98661.00;;;17.00
12875;BMP180;6505;51.114;13.128;2023-03-30T08:07:53;98651.00;;;17.10
12875;BMP180;6505;51.114;13.128;2023-03-30T08:10:29;98678.00;;;17.20
12875;BMP180;6505;51.114;13.128;2023-03-30T08:12:59;98686.00;;;17.20
12875;BMP180;6505;51.114;13.128;2023-03-30T08:15:27;98687.00;;;17.30
12875;BMP180;6505;51.114;13.128;2023-03-30T08:17:55;98692.00;;;17.30
12875;BMP180;6505;51.114;13.128;2023-03-30T08:20:28;98688.00;;;17.40
12875;BMP180;6505;51.114;13.128;2023-03-30T08:22:56;98683.00;;;17.40
12875;BMP180;6505;51.114;13.128;2023-03-30T08:25:27;98688.00;;;17.40
12875;BMP180;6505;51.114;13.128;2023-03-30T08:27:55;98696.00;;;17.50
12875;BMP180;6505;51.114;13.128;2023-03-30T08:30:26;98696.00;;;17.50
12875;BMP180;6505;51.114;13.128;2023-03-30T08:32:55;98688.00;;;17.60
12875;BMP180;6505;51.114;13.128;2023-03-30T08:35:23;98692.00;;;17.60
12875;BMP180;6505;51.114;13.128;2023-03-30T08:37:55;98705.00;;;17.60
12875;BMP180;6505;51.114;13.128;2023-03-30T08:40:23;98703.00;;;17.60
12875;BMP180;6505;51.114;13.128;2023-03-30T08:43:04;98702.00;;;17.60
12875;BMP180;6505;51.114;13.128;2023-03-30T08:45:37;98702.00;;;17.70
12875;BMP180;6505;51.114;13.128;2023-03-30T08:48:22;98723.00;;;17.70
12875;BMP180;6505;51.114;13.128;2023-03-30T08:50:57;98725.00;;;17.70
12875;BMP180;6505;51.114;13.128;2023-03-30T08:53:32;98722.00;;;17.70
12875;BMP180;6505;51.114;13.128;2023-03-30T08:56:07;98731.00;;;17.70
12875;BMP180;6505;51.114;13.128;2023-03-30T08:58:50;98735.00;;;17.70
12875;BMP180;6505;51.114;13.128;2023-03-30T09:01:28;98752.00;;;17.70
12875;BMP180;6505;51.114;13.128;2023-03-30T09:04:20;98721.00;;;17.70
12875;BMP180;6505;51.114;13.128;2023-03-30T09:06:54;98750.00;;;17.70
12875;BMP180;6505;51.114;13.128;2023-03-30T09:09:40;98749.00;;;17.80
12875;BMP180;6505;51.114;13.128;2023-03-30T09:12:22;98763.00;;;17.80
12875;BMP180;6505;51.114;13.128;2023-03-30T09:14:59;98772.00;;;17.80
12875;BMP180;6505;51.114;13.128;2023-03-30T09:17:39;98764.00;;;17.80
12875;BMP180;6505;51.114;13.128;2023-03-30T09:20:15;98760.00;;;17.80
12875;BMP180;6505;51.114;13.128;2023-03-30T09:22:49;98748.00;;;17.80
12875;BMP180;6505;51.114;13.128;2023-03-30T09:25:28;98761.00;;;17.80
12875;BMP180;6505;51.114;13.128;2023-03-30T09:28:07;98761.00;;;17.80
12875;BMP180;6505;51.114;13.128;2023-03-30T09:30:47;98761.00;;;17.80
12875;BMP180;6505;51.114;13.128;2023-03-30T09:33:28;98761.00;;;17.80
12875;BMP180;6505;51.114;13.128;2023-03-30T09:36:10;98767.00;;;17.80
12875;BMP180;6505;51.114;13.128;2023-03-30T09:38:44;98758.00;;;17.80
12875;BMP180;6505;51.114;13.128;2023-03-30T09:41:38;98762.00;;;17.80
12875;BMP180;6505;51.114;13.128;2023-03-30T09:44:18;98778.00;;;17.80
12875;BMP180;6505;51.114;13.128;2023-03-30T09:46:56;98764.00;;;17.80
12875;BMP180;6505;51.114;13.128;2023-03-30T09:49:28;98764.00;;;17.90
12875;BMP180;6505;51.114;13.128;2023-03-30T09:52:03;98770.00;;;17.90
12875;BMP180;6505;51.114;13.128;2023-03-30T09:54:35;98754.00;;;17.90
12875;BMP180;6505;51.114;13.128;2023-03-30T09:57:24;98765.00;;;17.80
12875;BMP180;6505;51.114;13.128;2023-03-30T09:59:59;98757.00;;;17.80
12875;BMP180;6505;51.114;13.128;2023-03-30T10:02:54;98733.00;;;17.90
12875;BMP180;6505;51.114;13.128;2023-03-30T10:05:26;98721.00;;;17.90
12875;BMP180;6505;51.114;13.128;2023-03-30T10:08:02;98740.00;;;17.90
12875;BMP180;6505;51.114;13.128;2023-03-30T10:10:34;98753.00;;;17.90
12875;BMP180;6505;51.114;13.128;2023-03-30T10:13:15;98755.00;;;17.90
12875;BMP180;6505;51.114;13.128;2023-03-30T10:15:53;98756.00;;;17.90
12875;BMP180;6505;51.114;13.128;2023-03-30T10:18:28;98759.00;;;17.90
12875;BMP180;6505;51.114;13.128;2023-03-30T10:21:06;98751.00;;;17.90
12875;BMP180;6505;51.114;13.128;2023-03-30T10:23:46;98755.00;;;18.00
12875;BMP180;6505;51.114;13.128;2023-03-30T10:26:28;98735.00;;;17.90
12875;BMP180;6505;51.114;13.128;2023-03-30T10:29:02;98743.00;;;17.90
12875;BMP180;6505;51.114;13.128;2023-03-30T10:31:36;98748.00;;;18.00
12875;BMP180;6505;51.114;13.128;2023-03-30T10:34:14;98736.00;;;18.00
12875;BMP180;6505;51.114;13.128;2023-03-30T10:36:47;98744.00;;;17.90
12875;BMP180;6505;51.114;13.128;2023-03-30T10:39:26;98745.00;;;18.00
12875;BMP180;6505;51.114;13.128;2023-03-30T10:41:58;98751.00;;;18.00
12875;BMP180;6505;51.114;13.128;2023-03-30T10:44:39;98744.00;;;18.00
12875;BMP180;6505;51.114;13.128;2023-03-30T10:47:28;98746.00;;;18.00
12875;BMP180;6505;51.114;13.128;2023-03-30T10:50:10;98752.00;;;18.00
12875;BMP180;6505;51.114;13.128;2023-03-30T10:52:58;98739.00;;;18.00
12875;BMP180;6505;51.114;13.128;2023-03-30T10:55:38;98729.00;;;18.00
12875;BMP180;6505;51.114;13.128;2023-03-30T10:58:29;98722.00;;;18.00
12875;BMP180;6505;51.114;13.128;2023-03-30T11:01:10;98750.00;;;18.00
12875;BMP180;6505;51.114;13.128;2023-03-30T11:03:45;98738.00;;;18.00
12875;BMP180;6505;51.114;13.128;2023-03-30T11:06:21;98731.00;;;18.00
12875;BMP180;6505;51.114;13.128;2023-03-30T11:08:55;98729.00;;;18.10
12875;BMP180;6505;51.114;13.128;2023-03-30T11:11:34;98724.00;;;18.10
12875;BMP180;6505;51.114;13.128;2023-03-30T11:14:11;98731.00;;;18.10
12875;BMP180;6505;51.114;13.128;2023-03-30T11:16:53;98712.00;;;18.10
12875;BMP180;6505;51.114;13.128;2023-03-30T11:19:29;98722.00;;;18.10
12875;BMP180;6505;51.114;13.128;2023-03-30T11:22:03;98704.00;;;18.20
12875;BMP180;6505;51.114;13.128;2023-03-30T11:24:35;98708.00;;;18.20
12875;BMP180;6505;51.114;13.128;2023-03-30T11:27:14;98698.00;;;18.20
12875;BMP180;6505;51.114;13.128;2023-03-30T11:29:53;98694.00;;;18.30
12875;BMP180;6505;51.114;13.128;2023-03-30T11:32:35;98691.00;;;18.30
12875;BMP180;6505;51.114;13.128;2023-03-30T11:35:16;98679.00;;;18.30
12875;BMP180;6505;51.114;13.128;2023-03-30T11:37:53;98679.00;;;18.30
12875;BMP180;6505;51.114;13.128;2023-03-30T11:40:30;98688.00;;;18.40
12875;BMP180;6505;51.114;13.128;2023-03-30T11:43:01;98667.00;;;18.40
12875;BMP180;6505;51.114;13.128;2023-03-30T11:45:42;98680.00;;;18.40
12875;BMP180;6505;51.114;13.128;2023-03-30T11:48:59;98680.00;;;18.40
12875;BMP180;6505;51.114;13.128;2023-03-30T11:51:48;98662.00;;;18.40
12875;BMP180;6505;51.114;13.128;2023-03-30T11:54:47;98661.00;;;18.40
12875;BMP180;6505;51.114;13.128;2023-03-30T11:57:37;98656.00;;;18.40
12875;BMP180;6505;51.114;13.128;2023-03-30T12:00:25;98648.00;;;18.50
12875;BMP180;6505;51.114;13.128;2023-03-30T12:03:11;98646.00;;;18.50
12875;BMP180;6505;51.114;13.128;2023-03-30T12:05:56;98648.00;;;18.50
12875;BMP180;6505;51.114;13.128;2023-03-30T12:08:49;98649.00;;;18.50
12875;BMP180;6505;51.114;13.128;2023-03-30T12:11:32;98639.00;;;18.50
12875;BMP180;6505;51.114;13.128;2023-03-30T12:14:02;98634.00;;;18.60
12875;BMP180;6505;51.114;13.128;2023-03-30T12:16:41;98648.00;;;18.60
12875;BMP180;6505;51.114;13.128;2023-03-30T12:19:25;98634.00;;;18.60
12875;BMP180;6505;51.114;13.128;2023-03-30T12:22:05;98631.00;;;18.70
12875;BMP180;6505;51.114;13.128;2023-03-30T12:24:46;98626.00;;;18.70
12875;BMP180;6505;51.114;13.128;2023-03-30T12:27:17;98599.00;;;18.80
12875;BMP180;6505;51.114;13.128;2023-03-30T12:29:48;98602.00;;;18.70
12875;BMP180;6505;51.114;13.128;2023-03-30T12:32:23;98603.00;;;18.80
12875;BMP180;6505;51.114;13.128;2023-03-30T12:34:56;98597.00;;;18.80
12875;BMP180;6505;51.114;13.128;2023-03-30T12:37:33;98584.00;;;18.80
12875;BMP180;6505;51.114;13.128;2023-03-30T12:40:05;98584.00;;;18.80
12875;BMP180;6505;51.114;13.128;2023-03-30T12:42:38;98574.00;;;18.90
12875;BMP180;6505;51.114;13.128;2023-03-30T12:45:29;98572.00;;;18.90
12875;BMP180;6505;51.114;13.128;2023-03-30T12:48:38;98580.00;;;18.80
12875;BMP180;6505;51.114;13.128;2023-03-30T12:51:21;98575.00;;;18.90
12875;BMP180;6505;51.114;13.128;2023-03-30T12:54:24;98565.00;;;18.90
12875;BMP180;6505;51.114;13.128;2023-03-30T12:57:07;98564.00;;;18.90
12875;BMP180;6505;51.114;13.128;2023-03-30T13:00:27;98551.00;;;18.90
12875;BMP180;6505;51.114;13.128;2023-03-30T13:03:24;98555.00;;;18.90
12875;BMP180;6505;51.114;13.128;2023-03-30T13:05:59;98536.00;;;18.90
12875;BMP180;6505;51.114;13.128;2023-03-30T13:08:35;98558.00;;;18.90
12875;BMP180;6505;51.114;13.128;2023-03-30T13:11:12;98568.00;;;18.90
12875;BMP180;6505;51.114;13.128;2023-03-30T13:13:54;98569.00;;;19.00
12875;BMP180;6505;51.114;13.128;2023-03-30T13:17:13;98562.00;;;18.90
12875;BMP180;6505;51.114;13.128;2023-03-30T13:20:14;98559.00;;;19.00
12875;BMP180;6505;51.114;13.128;2023-03-30T13:23:30;98563.00;;;19.00
12875;BMP180;6505;51.114;13.128;2023-03-30T13:26:19;98569.00;;;19.00
12875;BMP180;6505;51.114;13.128;2023-03-30T13:29:09;98571.00;;;19.00
12875;BMP180;6505;51.114;13.128;2023-03-30T13:32:12;98552.00;;;19.00
12875;BMP180;6505;51.114;13.128;2023-03-30T13:35:02;98555.00;;;19.10
12875;BMP180;6505;51.114;13.128;2023-03-30T13:41:00;98548.00;;;19.10
12875;BMP180;6505;51.114;13.128;2023-03-30T13:43:53;98553.00;;;19.10
12875;BMP180;6505;51.114;13.128;2023-03-30T13:46:34;98561.00;;;19.20
12875;BMP180;6505;51.114;13.128;2023-03-30T13:49:21;98550.00;;;19.20
12875;BMP180;6505;51.114;13.128;2023-03-30T13:52:01;98561.00;;;19.20
12875;BMP180;6505;51.114;13.128;2023-03-30T13:54:32;98551.00;;;19.20
12875;BMP180;6505;51.114;13.128;2023-03-30T13:57:08;98570.00;;;19.20
12875;BMP180;6505;51.114;13.128;2023-03-30T13:59:44;98569.00;;;19.30
12875;BMP180;6505;51.114;13.128;2023-03-30T14:02:21;98556.00;;;19.30
12875;BMP180;6505;51.114;13.128;2023-03-30T14:04:49;98553.00;;;19.40
12875;BMP180;6505;51.114;13.128;2023-03-30T14:07:21;98545.00;;;19.40
12875;BMP180;6505;51.114;13.128;2023-03-30T14:10:06;98545.00;;;19.30
12875;BMP180;6505;51.114;13.128;2023-03-30T14:12:38;98527.00;;;19.40
12875;BMP180;6505;51.114;13.128;2023-03-30T14:15:25;98521.00;;;19.40
12875;BMP180;6505;51.114;13.128;2023-03-30T14:17:58;98507.00;;;19.40
12875;BMP180;6505;51.114;13.128;2023-03-30T14:20:47;98527.00;;;19.40
12875;BMP180;6505;51.114;13.128;2023-03-30T14:23:31;98530.00;;;19.40
12875;BMP180;6505;51.114;13.128;2023-03-30T14:26:10;98540.00;;;19.50
12875;BMP180;6505;51.114;13.128;2023-03-30T14:28:39;98527.00;;;19.50
12875;BMP180;6505;51.114;13.128;2023-03-30T14:31:16;98523.00;;;19.50
12875;BMP180;6505;51.114;13.128;2023-03-30T14:33:47;98530.00;;;19.50
12875;BMP180;6505;51.114;13.128;2023-03-30T14:36:17;98522.00;;;19.60
12875;BMP180;6505;51.114;13.128;2023-03-30T14:38:52;98517.00;;;19.50
12875;BMP180;6505;51.114;13.128;2023-03-30T14:41:23;98513.00;;;19.60
12875;BMP180;6505;51.114;13.128;2023-03-30T14:43:57;98519.00;;;19.60
12875;BMP180;6505;51.114;13.128;2023-03-30T14:46:37;98520.00;;;19.60
12875;BMP180;6505;51.114;13.128;2023-03-30T14:49:17;98534.00;;;19.60
12875;BMP180;6505;51.114;13.128;2023-03-30T14:51:52;98541.00;;;19.60
12875;BMP180;6505;51.114;13.128;2023-03-30T14:54:30;98536.00;;;19.70
12875;BMP180;6505;51.114;13.128;2023-03-30T14:57:07;98534.00;;;19.70
12875;BMP180;6505;51.114;13.128;2023-03-30T14:59:44;98527.00;;;19.70
12875;BMP180;6505;51.114;13.128;2023-03-30T15:02:21;98518.00;;;19.70
12875;BMP180;6505;51.114;13.128;2023-03-30T15:04:53;98519.00;;;19.70
12875;BMP180;6505;51.114;13.128;2023-03-30T15:07:29;98523.00;;;19.70
12875;BMP180;6505;51.114;13.128;2023-03-30T15:10:01;98544.00;;;19.70
12875;BMP180;6505;51.114;13.128;2023-03-30T15:12:34;98585.00;;;19.70
12875;BMP180;6505;51.114;13.128;2023-03-30T15:15:07;98634.00;;;19.70
12875;BMP180;6505;51.114;13.128;2023-03-30T15:17:48;98671.00;;;19.60
12875;BMP180;6505;51.114;13.128;2023-03-30T15:20:19;98664.00;;;19.70
12875;BMP180;6505;51.114;13.128;2023-03-30T15:22:50;98685.00;;;19.60
12875;BMP180;6505;51.114;13.128;2023-03-30T15:25:22;98677.00;;;19.60
12875;BMP180;6505;51.114;13.128;2023-03-30T15:27:58;98673.00;;;19.60
12875;BMP180;6505;51.114;13.128;2023-03-30T15:30:32;98661.00;;;19.60